Williams, Iowa
Current Conditions -  °F | °C
As of 1:35 PM on Friday 24 Oct 2014 (Local Time) from KIFA Reporting Station
Drizzle Drizzle  
Wind Chill: 60°   Ceiling: 200
Heat Index: 60°   Visibility: 0.75mi
Dew Point: 59°   Wind: 12mph
Humidity: 97%   Direction: 200°SSW
Pressure: 29.92"   Gusts: NA
Location:  42.49°N, 93.54°W
Report Text: KIFA 241835Z AUTO 20010KT 3/4SM -DZ OVC002 16/15 A2992 RMK AO2 T01550150
Loading
Personal Weather Stations






























Interactive Weather Map
Tropical Storm Tracking
New forecast layout! Learn more

10-Day Weather Forecast

Advertisements
Track Severe Weather on mobile